sensor_id;sensor_type;location;lat;lon;timestamp;P1;durP1;ratioP1;P2;durP2;ratioP2
13560;SDS011;6852;51.686;5.314;2023-01-19T00:00:34;13.37;;;8.77;;
13560;SDS011;6852;51.686;5.314;2023-01-19T00:03:02;16.43;;;8.53;;
13560;SDS011;6852;51.686;5.314;2023-01-19T00:05:29;10.33;;;7.87;;
13560;SDS011;6852;51.686;5.314;2023-01-19T00:07:57;11.63;;;8.53;;
13560;SDS011;6852;51.686;5.314;2023-01-19T00:10:44;13.90;;;9.20;;
13560;SDS011;6852;51.686;5.314;2023-01-19T00:13:13;14.90;;;7.97;;
13560;SDS011;6852;51.686;5.314;2023-01-19T00:15:40;10.30;;;6.57;;
13560;SDS011;6852;51.686;5.314;2023-01-19T00:18:07;11.73;;;7.80;;
13560;SDS011;6852;51.686;5.314;2023-01-19T00:20:36;13.20;;;8.50;;
13560;SDS011;6852;51.686;5.314;2023-01-19T00:23:03;9.47;;;7.50;;
13560;SDS011;6852;51.686;5.314;2023-01-19T00:25:30;11.43;;;7.20;;
13560;SDS011;6852;51.686;5.314;2023-01-19T00:27:57;11.23;;;7.57;;
13560;SDS011;6852;51.686;5.314;2023-01-19T00:30:26;11.53;;;6.03;;
13560;SDS011;6852;51.686;5.314;2023-01-19T00:32:54;12.57;;;7.90;;
13560;SDS011;6852;51.686;5.314;2023-01-19T00:35:21;10.90;;;7.90;;
13560;SDS011;6852;51.686;5.314;2023-01-19T00:37:47;13.43;;;7.83;;
13560;SDS011;6852;51.686;5.314;2023-01-19T00:40:14;13.87;;;7.70;;
13560;SDS011;6852;51.686;5.314;2023-01-19T00:42:42;12.43;;;7.40;;
13560;SDS011;6852;51.686;5.314;2023-01-19T00:47:41;12.50;;;7.53;;
13560;SDS011;6852;51.686;5.314;2023-01-19T00:50:08;14.57;;;8.27;;
13560;SDS011;6852;51.686;5.314;2023-01-19T00:52:37;11.90;;;7.70;;
13560;SDS011;6852;51.686;5.314;2023-01-19T00:55:05;12.77;;;8.17;;
13560;SDS011;6852;51.686;5.314;2023-01-19T00:57:33;9.97;;;7.90;;
13560;SDS011;6852;51.686;5.314;2023-01-19T01:00:00;14.93;;;8.30;;
13560;SDS011;6852;51.686;5.314;2023-01-19T01:02:32;12.60;;;7.83;;
13560;SDS011;6852;51.686;5.314;2023-01-19T01:04:59;13.77;;;8.70;;
13560;SDS011;6852;51.686;5.314;2023-01-19T01:07:28;12.97;;;8.67;;
13560;SDS011;6852;51.686;5.314;2023-01-19T01:09:55;11.53;;;8.07;;
13560;SDS011;6852;51.686;5.314;2023-01-19T01:12:22;13.97;;;8.53;;
13560;SDS011;6852;51.686;5.314;2023-01-19T01:14:49;16.80;;;7.60;;
13560;SDS011;6852;51.686;5.314;2023-01-19T01:17:16;13.13;;;8.00;;
13560;SDS011;6852;51.686;5.314;2023-01-19T01:19:43;20.57;;;7.67;;
13560;SDS011;6852;51.686;5.314;2023-01-19T01:22:10;12.40;;;7.50;;
13560;SDS011;6852;51.686;5.314;2023-01-19T01:24:36;13.33;;;6.87;;
13560;SDS011;6852;51.686;5.314;2023-01-19T01:27:03;10.57;;;6.63;;
13560;SDS011;6852;51.686;5.314;2023-01-19T01:29:30;10.87;;;6.37;;
13560;SDS011;6852;51.686;5.314;2023-01-19T01:32:00;11.00;;;7.20;;
13560;SDS011;6852;51.686;5.314;2023-01-19T01:34:27;12.03;;;6.90;;
13560;SDS011;6852;51.686;5.314;2023-01-19T01:36:54;13.33;;;7.37;;
13560;SDS011;6852;51.686;5.314;2023-01-19T01:39:21;14.47;;;6.47;;
13560;SDS011;6852;51.686;5.314;2023-01-19T01:41:47;12.17;;;6.10;;
13560;SDS011;6852;51.686;5.314;2023-01-19T01:47:42;9.97;;;6.23;;
13560;SDS011;6852;51.686;5.314;2023-01-19T01:50:16;12.23;;;7.50;;
13560;SDS011;6852;51.686;5.314;2023-01-19T01:53:05;9.47;;;6.13;;
13560;SDS011;6852;51.686;5.314;2023-01-19T01:55:37;9.73;;;5.87;;
13560;SDS011;6852;51.686;5.314;2023-01-19T01:58:08;13.30;;;6.90;;
13560;SDS011;6852;51.686;5.314;2023-01-19T02:00:36;10.90;;;6.77;;
13560;SDS011;6852;51.686;5.314;2023-01-19T02:03:24;9.37;;;6.53;;
13560;SDS011;6852;51.686;5.314;2023-01-19T02:05:52;11.20;;;6.20;;
13560;SDS011;6852;51.686;5.314;2023-01-19T02:11:21;12.00;;;5.93;;
13560;SDS011;6852;51.686;5.314;2023-01-19T02:14:07;8.43;;;5.33;;
13560;SDS011;6852;51.686;5.314;2023-01-19T02:16:35;10.37;;;6.17;;
13560;SDS011;6852;51.686;5.314;2023-01-19T02:19:04;8.07;;;5.67;;
13560;SDS011;6852;51.686;5.314;2023-01-19T02:21:53;7.30;;;5.60;;
13560;SDS011;6852;51.686;5.314;2023-01-19T02:24:24;7.33;;;4.90;;
13560;SDS011;6852;51.686;5.314;2023-01-19T02:26:52;5.80;;;4.63;;
13560;SDS011;6852;51.686;5.314;2023-01-19T02:29:21;7.63;;;4.90;;
13560;SDS011;6852;51.686;5.314;2023-01-19T02:31:50;7.87;;;5.87;;
13560;SDS011;6852;51.686;5.314;2023-01-19T02:34:18;7.03;;;4.63;;
13560;SDS011;6852;51.686;5.314;2023-01-19T02:39:28;8.33;;;4.70;;
13560;SDS011;6852;51.686;5.314;2023-01-19T02:42:03;6.43;;;5.20;;
13560;SDS011;6852;51.686;5.314;2023-01-19T02:44:35;9.70;;;6.50;;
13560;SDS011;6852;51.686;5.314;2023-01-19T02:47:03;6.37;;;4.73;;
13560;SDS011;6852;51.686;5.314;2023-01-19T02:49:30;7.17;;;5.20;;
13560;SDS011;6852;51.686;5.314;2023-01-19T02:51:57;8.40;;;5.47;;
13560;SDS011;6852;51.686;5.314;2023-01-19T02:54:36;7.30;;;5.40;;
13560;SDS011;6852;51.686;5.314;2023-01-19T02:58:46;8.37;;;4.90;;
13560;SDS011;6852;51.686;5.314;2023-01-19T03:00:52;6.63;;;4.90;;
13560;SDS011;6852;51.686;5.314;2023-01-19T03:03:38;6.87;;;4.90;;
13560;SDS011;6852;51.686;5.314;2023-01-19T03:06:29;5.93;;;4.17;;
13560;SDS011;6852;51.686;5.314;2023-01-19T03:12:04;6.80;;;4.73;;
13560;SDS011;6852;51.686;5.314;2023-01-19T03:14:40;5.87;;;3.87;;
13560;SDS011;6852;51.686;5.314;2023-01-19T03:17:11;6.17;;;4.80;;
13560;SDS011;6852;51.686;5.314;2023-01-19T03:19:42;5.57;;;4.40;;
13560;SDS011;6852;51.686;5.314;2023-01-19T03:22:14;6.00;;;4.43;;
13560;SDS011;6852;51.686;5.314;2023-01-19T03:24:46;6.10;;;3.73;;
13560;SDS011;6852;51.686;5.314;2023-01-19T03:27:31;6.40;;;4.07;;
13560;SDS011;6852;51.686;5.314;2023-01-19T03:30:07;5.67;;;3.70;;
13560;SDS011;6852;51.686;5.314;2023-01-19T03:32:40;5.27;;;3.43;;
13560;SDS011;6852;51.686;5.314;2023-01-19T03:35:13;6.40;;;3.60;;
13560;SDS011;6852;51.686;5.314;2023-01-19T03:37:42;3.97;;;3.00;;
13560;SDS011;6852;51.686;5.314;2023-01-19T03:40:12;4.27;;;2.83;;
13560;SDS011;6852;51.686;5.314;2023-01-19T03:42:39;3.97;;;2.90;;
13560;SDS011;6852;51.686;5.314;2023-01-19T03:45:07;3.47;;;2.67;;
13560;SDS011;6852;51.686;5.314;2023-01-19T03:47:35;4.13;;;2.30;;
13560;SDS011;6852;51.686;5.314;2023-01-19T03:50:02;2.97;;;2.00;;
13560;SDS011;6852;51.686;5.314;2023-01-19T03:52:33;2.90;;;1.87;;
13560;SDS011;6852;51.686;5.314;2023-01-19T03:55:00;1.60;;;1.00;;
13560;SDS011;6852;51.686;5.314;2023-01-19T03:57:29;2.37;;;0.80;;
13560;SDS011;6852;51.686;5.314;2023-01-19T03:59:56;1.67;;;0.60;;
13560;SDS011;6852;51.686;5.314;2023-01-19T04:02:23;0.57;;;0.57;;
13560;SDS011;6852;51.686;5.314;2023-01-19T04:04:50;2.00;;;0.80;;
13560;SDS011;6852;51.686;5.314;2023-01-19T04:07:17;0.50;;;0.50;;
13560;SDS011;6852;51.686;5.314;2023-01-19T04:09:43;0.80;;;0.80;;
13560;SDS011;6852;51.686;5.314;2023-01-19T04:12:10;0.40;;;0.40;;
13560;SDS011;6852;51.686;5.314;2023-01-19T04:14:37;3.40;;;0.70;;
13560;SDS011;6852;51.686;5.314;2023-01-19T04:17:04;0.60;;;0.60;;
13560;SDS011;6852;51.686;5.314;2023-01-19T04:19:30;1.37;;;0.90;;
13560;SDS011;6852;51.686;5.314;2023-01-19T04:21:57;0.60;;;0.60;;
13560;SDS011;6852;51.686;5.314;2023-01-19T04:24:24;0.50;;;0.50;;
13560;SDS011;6852;51.686;5.314;2023-01-19T04:26:52;0.87;;;0.60;;
13560;SDS011;6852;51.686;5.314;2023-01-19T04:29:19;0.60;;;0.60;;
13560;SDS011;6852;51.686;5.314;2023-01-19T04:31:46;1.43;;;0.60;;
13560;SDS011;6852;51.686;5.314;2023-01-19T04:34:13;0.70;;;0.70;;
13560;SDS011;6852;51.686;5.314;2023-01-19T04:36:39;0.50;;;0.43;;
13560;SDS011;6852;51.686;5.314;2023-01-19T04:39:06;0.50;;;0.50;;
13560;SDS011;6852;51.686;5.314;2023-01-19T04:41:34;0.97;;;0.40;;
13560;SDS011;6852;51.686;5.314;2023-01-19T04:44:01;0.33;;;0.30;;
13560;SDS011;6852;51.686;5.314;2023-01-19T04:46:27;1.63;;;0.40;;
13560;SDS011;6852;51.686;5.314;2023-01-19T04:48:54;0.30;;;0.30;;
13560;SDS011;6852;51.686;5.314;2023-01-19T04:51:21;0.30;;;0.30;;
13560;SDS011;6852;51.686;5.314;2023-01-19T04:53:48;0.80;;;0.80;;
13560;SDS011;6852;51.686;5.314;2023-01-19T04:56:14;0.57;;;0.43;;
13560;SDS011;6852;51.686;5.314;2023-01-19T04:58:41;0.40;;;0.40;;
13560;SDS011;6852;51.686;5.314;2023-01-19T05:01:08;1.30;;;0.70;;
13560;SDS011;6852;51.686;5.314;2023-01-19T05:03:35;1.57;;;0.53;;
13560;SDS011;6852;51.686;5.314;2023-01-19T05:06:02;1.77;;;0.70;;
13560;SDS011;6852;51.686;5.314;2023-01-19T05:08:29;0.80;;;0.70;;
13560;SDS011;6852;51.686;5.314;2023-01-19T05:10:55;1.47;;;0.97;;
13560;SDS011;6852;51.686;5.314;2023-01-19T05:13:23;0.90;;;0.70;;
13560;SDS011;6852;51.686;5.314;2023-01-19T05:15:49;1.43;;;0.90;;
13560;SDS011;6852;51.686;5.314;2023-01-19T05:18:16;1.33;;;1.10;;
13560;SDS011;6852;51.686;5.314;2023-01-19T05:20:43;1.60;;;0.97;;
13560;SDS011;6852;51.686;5.314;2023-01-19T05:23:10;1.63;;;1.00;;
13560;SDS011;6852;51.686;5.314;2023-01-19T05:25:37;1.00;;;0.90;;
13560;SDS011;6852;51.686;5.314;2023-01-19T05:28:04;2.17;;;1.03;;
13560;SDS011;6852;51.686;5.314;2023-01-19T05:30:31;2.93;;;1.10;;
13560;SDS011;6852;51.686;5.314;2023-01-19T05:32:58;4.83;;;1.63;;
13560;SDS011;6852;51.686;5.314;2023-01-19T05:35:25;2.30;;;1.80;;
13560;SDS011;6852;51.686;5.314;2023-01-19T05:38:01;1.63;;;1.50;;
13560;SDS011;6852;51.686;5.314;2023-01-19T05:40:27;2.77;;;1.40;;
13560;SDS011;6852;51.686;5.314;2023-01-19T05:42:54;3.73;;;1.57;;
13560;SDS011;6852;51.686;5.314;2023-01-19T05:45:26;3.37;;;1.77;;
13560;SDS011;6852;51.686;5.314;2023-01-19T05:47:53;4.00;;;2.10;;
13560;SDS011;6852;51.686;5.314;2023-01-19T05:50:20;2.93;;;1.43;;
13560;SDS011;6852;51.686;5.314;2023-01-19T05:52:47;3.57;;;1.60;;
13560;SDS011;6852;51.686;5.314;2023-01-19T05:55:14;4.97;;;1.37;;
13560;SDS011;6852;51.686;5.314;2023-01-19T05:57:41;3.60;;;1.47;;
13560;SDS011;6852;51.686;5.314;2023-01-19T06:00:08;2.80;;;1.47;;
13560;SDS011;6852;51.686;5.314;2023-01-19T06:02:36;2.50;;;1.10;;
13560;SDS011;6852;51.686;5.314;2023-01-19T06:05:02;2.53;;;1.40;;
13560;SDS011;6852;51.686;5.314;2023-01-19T06:07:29;1.87;;;1.20;;
13560;SDS011;6852;51.686;5.314;2023-01-19T06:09:59;1.87;;;1.20;;
13560;SDS011;6852;51.686;5.314;2023-01-19T06:12:26;2.27;;;1.50;;
13560;SDS011;6852;51.686;5.314;2023-01-19T06:14:53;3.93;;;1.43;;
13560;SDS011;6852;51.686;5.314;2023-01-19T06:17:20;1.47;;;1.20;;
13560;SDS011;6852;51.686;5.314;2023-01-19T06:19:46;3.20;;;1.33;;
13560;SDS011;6852;51.686;5.314;2023-01-19T06:22:13;2.10;;;1.23;;
13560;SDS011;6852;51.686;5.314;2023-01-19T06:24:40;7.27;;;1.50;;
13560;SDS011;6852;51.686;5.314;2023-01-19T06:27:07;4.27;;;1.53;;
13560;SDS011;6852;51.686;5.314;2023-01-19T06:29:34;3.70;;;1.43;;
13560;SDS011;6852;51.686;5.314;2023-01-19T06:32:01;1.17;;;1.07;;
13560;SDS011;6852;51.686;5.314;2023-01-19T06:34:28;4.13;;;2.17;;
13560;SDS011;6852;51.686;5.314;2023-01-19T06:36:55;2.90;;;1.43;;
13560;SDS011;6852;51.686;5.314;2023-01-19T06:39:22;5.57;;;2.00;;
13560;SDS011;6852;51.686;5.314;2023-01-19T06:41:49;4.77;;;2.77;;
13560;SDS011;6852;51.686;5.314;2023-01-19T06:44:16;2.67;;;2.43;;
13560;SDS011;6852;51.686;5.314;2023-01-19T06:46:43;3.97;;;2.80;;
13560;SDS011;6852;51.686;5.314;2023-01-19T06:49:10;3.23;;;2.93;;
13560;SDS011;6852;51.686;5.314;2023-01-19T06:51:37;4.90;;;3.43;;
13560;SDS011;6852;51.686;5.314;2023-01-19T06:54:04;5.10;;;3.53;;
13560;SDS011;6852;51.686;5.314;2023-01-19T06:56:30;6.97;;;3.67;;
13560;SDS011;6852;51.686;5.314;2023-01-19T06:58:57;5.07;;;4.17;;
13560;SDS011;6852;51.686;5.314;2023-01-19T07:01:24;7.23;;;4.20;;
13560;SDS011;6852;51.686;5.314;2023-01-19T07:03:52;6.47;;;4.17;;
13560;SDS011;6852;51.686;5.314;2023-01-19T07:06:19;8.20;;;4.73;;
13560;SDS011;6852;51.686;5.314;2023-01-19T07:08:46;8.53;;;5.27;;
13560;SDS011;6852;51.686;5.314;2023-01-19T07:11:13;13.20;;;5.10;;
13560;SDS011;6852;51.686;5.314;2023-01-19T07:13:57;6.10;;;4.67;;
13560;SDS011;6852;51.686;5.314;2023-01-19T07:16:24;14.97;;;5.57;;
13560;SDS011;6852;51.686;5.314;2023-01-19T07:18:51;9.20;;;5.73;;
13560;SDS011;6852;51.686;5.314;2023-01-19T07:21:18;8.93;;;6.20;;
13560;SDS011;6852;51.686;5.314;2023-01-19T07:23:50;9.33;;;6.63;;
13560;SDS011;6852;51.686;5.314;2023-01-19T07:26:17;11.83;;;7.40;;
13560;SDS011;6852;51.686;5.314;2023-01-19T07:28:46;12.63;;;7.53;;
13560;SDS011;6852;51.686;5.314;2023-01-19T07:31:14;15.10;;;8.13;;
13560;SDS011;6852;51.686;5.314;2023-01-19T07:33:41;15.43;;;8.50;;
13560;SDS011;6852;51.686;5.314;2023-01-19T07:36:08;12.47;;;8.20;;
13560;SDS011;6852;51.686;5.314;2023-01-19T07:38:35;14.23;;;9.17;;
13560;SDS011;6852;51.686;5.314;2023-01-19T07:41:02;13.13;;;8.77;;
13560;SDS011;6852;51.686;5.314;2023-01-19T07:43:33;14.53;;;9.17;;
13560;SDS011;6852;51.686;5.314;2023-01-19T07:46:01;15.30;;;8.50;;
13560;SDS011;6852;51.686;5.314;2023-01-19T07:48:29;14.03;;;10.93;;
13560;SDS011;6852;51.686;5.314;2023-01-19T07:51:03;12.33;;;8.13;;
13560;SDS011;6852;51.686;5.314;2023-01-19T07:53:31;13.10;;;9.30;;
13560;SDS011;6852;51.686;5.314;2023-01-19T07:55:58;17.10;;;8.50;;
13560;SDS011;6852;51.686;5.314;2023-01-19T07:58:25;15.50;;;8.67;;
13560;SDS011;6852;51.686;5.314;2023-01-19T08:00:52;15.17;;;8.80;;
13560;SDS011;6852;51.686;5.314;2023-01-19T08:03:19;15.67;;;9.67;;
13560;SDS011;6852;51.686;5.314;2023-01-19T08:05:49;12.73;;;8.47;;
13560;SDS011;6852;51.686;5.314;2023-01-19T08:08:18;11.23;;;8.50;;
13560;SDS011;6852;51.686;5.314;2023-01-19T08:10:48;15.40;;;9.03;;
13560;SDS011;6852;51.686;5.314;2023-01-19T08:13:15;15.27;;;9.70;;
13560;SDS011;6852;51.686;5.314;2023-01-19T08:15:42;14.40;;;8.87;;
13560;SDS011;6852;51.686;5.314;2023-01-19T08:18:09;12.43;;;8.33;;
13560;SDS011;6852;51.686;5.314;2023-01-19T08:20:36;16.23;;;7.97;;
13560;SDS011;6852;51.686;5.314;2023-01-19T08:23:03;17.37;;;7.77;;
13560;SDS011;6852;51.686;5.314;2023-01-19T08:25:31;9.47;;;7.17;;
13560;SDS011;6852;51.686;5.314;2023-01-19T08:28:00;12.03;;;6.87;;
13560;SDS011;6852;51.686;5.314;2023-01-19T08:30:27;15.03;;;7.20;;
13560;SDS011;6852;51.686;5.314;2023-01-19T08:32:55;9.30;;;5.77;;
13560;SDS011;6852;51.686;5.314;2023-01-19T08:35:29;13.53;;;6.67;;
13560;SDS011;6852;51.686;5.314;2023-01-19T08:37:57;10.17;;;5.93;;
13560;SDS011;6852;51.686;5.314;2023-01-19T08:40:27;13.30;;;6.20;;
13560;SDS011;6852;51.686;5.314;2023-01-19T08:43:13;8.83;;;5.37;;
13560;SDS011;6852;51.686;5.314;2023-01-19T08:45:42;8.77;;;5.93;;
13560;SDS011;6852;51.686;5.314;2023-01-19T08:48:14;12.60;;;6.63;;
13560;SDS011;6852;51.686;5.314;2023-01-19T08:50:47;15.53;;;6.27;;
13560;SDS011;6852;51.686;5.314;2023-01-19T08:53:15;17.60;;;6.90;;
13560;SDS011;6852;51.686;5.314;2023-01-19T08:55:42;16.83;;;6.80;;
13560;SDS011;6852;51.686;5.314;2023-01-19T08:58:09;13.70;;;6.83;;
13560;SDS011;6852;51.686;5.314;2023-01-19T09:00:36;12.13;;;6.80;;
13560;SDS011;6852;51.686;5.314;2023-01-19T09:03:04;19.53;;;7.73;;
13560;SDS011;6852;51.686;5.314;2023-01-19T09:05:33;15.13;;;7.53;;
13560;SDS011;6852;51.686;5.314;2023-01-19T09:08:03;18.97;;;8.20;;
13560;SDS011;6852;51.686;5.314;2023-01-19T09:10:33;14.97;;;7.77;;
13560;SDS011;6852;51.686;5.314;2023-01-19T09:13:01;14.13;;;7.67;;
13560;SDS011;6852;51.686;5.314;2023-01-19T09:15:34;12.97;;;7.73;;
13560;SDS011;6852;51.686;5.314;2023-01-19T09:18:03;15.77;;;8.33;;
13560;SDS011;6852;51.686;5.314;2023-01-19T09:20:32;18.67;;;8.90;;
13560;SDS011;6852;51.686;5.314;2023-01-19T09:23:01;19.13;;;9.17;;
13560;SDS011;6852;51.686;5.314;2023-01-19T09:25:28;20.93;;;8.57;;
13560;SDS011;6852;51.686;5.314;2023-01-19T09:27:54;17.37;;;10.27;;
13560;SDS011;6852;51.686;5.314;2023-01-19T09:30:21;25.87;;;11.70;;
13560;SDS011;6852;51.686;5.314;2023-01-19T09:32:48;23.87;;;12.10;;
13560;SDS011;6852;51.686;5.314;2023-01-19T09:35:15;20.47;;;12.07;;
13560;SDS011;6852;51.686;5.314;2023-01-19T09:37:45;27.40;;;14.03;;
13560;SDS011;6852;51.686;5.314;2023-01-19T09:40:13;22.23;;;12.30;;
13560;SDS011;6852;51.686;5.314;2023-01-19T09:42:41;25.33;;;13.67;;
13560;SDS011;6852;51.686;5.314;2023-01-19T09:51:22;25.57;;;12.43;;
13560;SDS011;6852;51.686;5.314;2023-01-19T09:56:25;28.23;;;12.17;;
13560;SDS011;6852;51.686;5.314;2023-01-19T09:58:54;25.57;;;12.70;;
13560;SDS011;6852;51.686;5.314;2023-01-19T10:06:48;23.27;;;11.47;;
13560;SDS011;6852;51.686;5.314;2023-01-19T10:12:34;25.40;;;10.80;;
13560;SDS011;6852;51.686;5.314;2023-01-19T10:18:18;19.53;;;10.40;;
13560;SDS011;6852;51.686;5.314;2023-01-19T10:23:50;23.00;;;9.07;;
13560;SDS011;6852;51.686;5.314;2023-01-19T10:26:22;15.63;;;8.40;;
13560;SDS011;6852;51.686;5.314;2023-01-19T10:29:32;12.63;;;8.77;;
13560;SDS011;6852;51.686;5.314;2023-01-19T10:32:03;18.83;;;7.90;;
13560;SDS011;6852;51.686;5.314;2023-01-19T10:34:37;16.50;;;8.50;;
13560;SDS011;6852;51.686;5.314;2023-01-19T10:37:20;11.50;;;7.23;;
13560;SDS011;6852;51.686;5.314;2023-01-19T10:40:12;19.57;;;8.20;;
13560;SDS011;6852;51.686;5.314;2023-01-19T10:42:47;15.83;;;7.37;;
13560;SDS011;6852;51.686;5.314;2023-01-19T10:45:15;14.07;;;7.30;;
13560;SDS011;6852;51.686;5.314;2023-01-19T10:47:44;17.00;;;7.40;;
13560;SDS011;6852;51.686;5.314;2023-01-19T10:50:21;10.97;;;7.70;;
13560;SDS011;6852;51.686;5.314;2023-01-19T10:52:49;14.93;;;7.23;;
13560;SDS011;6852;51.686;5.314;2023-01-19T10:55:29;11.77;;;7.87;;
13560;SDS011;6852;51.686;5.314;2023-01-19T10:58:03;11.43;;;6.93;;
13560;SDS011;6852;51.686;5.314;2023-01-19T11:03:04;14.90;;;7.17;;
13560;SDS011;6852;51.686;5.314;2023-01-19T11:05:47;13.67;;;7.00;;
13560;SDS011;6852;51.686;5.314;2023-01-19T11:08:48;14.73;;;6.93;;
13560;SDS011;6852;51.686;5.314;2023-01-19T11:11:08;11.27;;;6.90;;
13560;SDS011;6852;51.686;5.314;2023-01-19T11:13:40;16.27;;;6.60;;
13560;SDS011;6852;51.686;5.314;2023-01-19T11:16:26;17.47;;;6.93;;
13560;SDS011;6852;51.686;5.314;2023-01-19T11:18:56;14.97;;;6.60;;
13560;SDS011;6852;51.686;5.314;2023-01-19T11:21:24;11.13;;;5.30;;
13560;SDS011;6852;51.686;5.314;2023-01-19T11:23:54;12.93;;;6.37;;
13560;SDS011;6852;51.686;5.314;2023-01-19T11:28:52;13.67;;;5.63;;
13560;SDS011;6852;51.686;5.314;2023-01-19T11:33:55;15.87;;;5.73;;
13560;SDS011;6852;51.686;5.314;2023-01-19T11:36:27;13.80;;;5.93;;
13560;SDS011;6852;51.686;5.314;2023-01-19T11:38:55;12.17;;;5.80;;
13560;SDS011;6852;51.686;5.314;2023-01-19T11:43:53;13.77;;;6.07;;
13560;SDS011;6852;51.686;5.314;2023-01-19T11:46:30;13.47;;;5.70;;
13560;SDS011;6852;51.686;5.314;2023-01-19T11:52:09;11.63;;;5.30;;
13560;SDS011;6852;51.686;5.314;2023-01-19T11:54:53;6.63;;;4.93;;
13560;SDS011;6852;51.686;5.314;2023-01-19T11:57:27;11.57;;;5.73;;
13560;SDS011;6852;51.686;5.314;2023-01-19T11:59:54;9.10;;;5.37;;
13560;SDS011;6852;51.686;5.314;2023-01-19T12:02:31;9.80;;;4.93;;
13560;SDS011;6852;51.686;5.314;2023-01-19T12:05:12;11.00;;;5.47;;
13560;SDS011;6852;51.686;5.314;2023-01-19T12:07:43;12.93;;;5.63;;
13560;SDS011;6852;51.686;5.314;2023-01-19T12:12:48;10.37;;;5.40;;
13560;SDS011;6852;51.686;5.314;2023-01-19T12:17:51;11.47;;;5.43;;
13560;SDS011;6852;51.686;5.314;2023-01-19T12:23:12;13.37;;;5.63;;
13560;SDS011;6852;51.686;5.314;2023-01-19T12:25:53;9.10;;;5.17;;
13560;SDS011;6852;51.686;5.314;2023-01-19T12:28:42;11.90;;;5.37;;
13560;SDS011;6852;51.686;5.314;2023-01-19T12:31:13;11.20;;;6.03;;
13560;SDS011;6852;51.686;5.314;2023-01-19T12:33:45;10.90;;;5.80;;
13560;SDS011;6852;51.686;5.314;2023-01-19T12:39:14;10.03;;;5.47;;
13560;SDS011;6852;51.686;5.314;2023-01-19T12:41:42;11.17;;;5.50;;
13560;SDS011;6852;51.686;5.314;2023-01-19T12:46:36;15.13;;;5.80;;
13560;SDS011;6852;51.686;5.314;2023-01-19T12:52:09;9.93;;;5.00;;
13560;SDS011;6852;51.686;5.314;2023-01-19T12:54:36;11.43;;;5.60;;
13560;SDS011;6852;51.686;5.314;2023-01-19T12:57:36;10.07;;;5.40;;
13560;SDS011;6852;51.686;5.314;2023-01-19T13:02:57;8.07;;;4.87;;
13560;SDS011;6852;51.686;5.314;2023-01-19T13:13:36;8.53;;;5.33;;
13560;SDS011;6852;51.686;5.314;2023-01-19T13:18:59;8.73;;;5.87;;
13560;SDS011;6852;51.686;5.314;2023-01-19T13:21:47;9.33;;;5.60;;
13560;SDS011;6852;51.686;5.314;2023-01-19T13:24:15;12.30;;;5.97;;
13560;SDS011;6852;51.686;5.314;2023-01-19T13:31:47;12.87;;;6.27;;
13560;SDS011;6852;51.686;5.314;2023-01-19T13:34:18;16.33;;;7.00;;
13560;SDS011;6852;51.686;5.314;2023-01-19T13:36:51;17.93;;;7.10;;
13560;SDS011;6852;51.686;5.314;2023-01-19T13:39:36;14.77;;;6.93;;
13560;SDS011;6852;51.686;5.314;2023-01-19T13:42:11;11.63;;;6.50;;
13560;SDS011;6852;51.686;5.314;2023-01-19T13:44:42;11.57;;;6.70;;
13560;SDS011;6852;51.686;5.314;2023-01-19T13:47:18;12.83;;;7.20;;
13560;SDS011;6852;51.686;5.314;2023-01-19T13:49:49;12.20;;;7.37;;
13560;SDS011;6852;51.686;5.314;2023-01-19T13:52:21;13.00;;;8.10;;
13560;SDS011;6852;51.686;5.314;2023-01-19T13:54:59;13.07;;;8.17;;
13560;SDS011;6852;51.686;5.314;2023-01-19T13:57:30;10.87;;;8.73;;
13560;SDS011;6852;51.686;5.314;2023-01-19T14:02:38;16.97;;;9.30;;
13560;SDS011;6852;51.686;5.314;2023-01-19T14:08:03;17.03;;;7.77;;
13560;SDS011;6852;51.686;5.314;2023-01-19T14:10:34;13.00;;;8.27;;
13560;SDS011;6852;51.686;5.314;2023-01-19T14:13:04;14.30;;;8.63;;
13560;SDS011;6852;51.686;5.314;2023-01-19T14:15:38;18.30;;;8.80;;
13560;SDS011;6852;51.686;5.314;2023-01-19T14:18:07;22.53;;;8.93;;
13560;SDS011;6852;51.686;5.314;2023-01-19T14:20:54;13.77;;;9.07;;
13560;SDS011;6852;51.686;5.314;2023-01-19T14:29:25;16.77;;;8.53;;
13560;SDS011;6852;51.686;5.314;2023-01-19T14:37:00;11.63;;;7.10;;
13560;SDS011;6852;51.686;5.314;2023-01-19T14:39:29;11.93;;;6.70;;
13560;SDS011;6852;51.686;5.314;2023-01-19T14:41:58;12.80;;;6.67;;
13560;SDS011;6852;51.686;5.314;2023-01-19T14:44:29;11.43;;;5.90;;
13560;SDS011;6852;51.686;5.314;2023-01-19T14:46:59;9.97;;;4.67;;
13560;SDS011;6852;51.686;5.314;2023-01-19T14:49:39;9.30;;;4.50;;
13560;SDS011;6852;51.686;5.314;2023-01-19T14:52:27;7.63;;;4.70;;
13560;SDS011;6852;51.686;5.314;2023-01-19T14:55:14;10.93;;;5.03;;
13560;SDS011;6852;51.686;5.314;2023-01-19T14:57:46;13.33;;;6.50;;
13560;SDS011;6852;51.686;5.314;2023-01-19T15:00:14;16.03;;;8.83;;
13560;SDS011;6852;51.686;5.314;2023-01-19T15:02:45;17.53;;;10.80;;
13560;SDS011;6852;51.686;5.314;2023-01-19T15:05:12;16.47;;;11.23;;
13560;SDS011;6852;51.686;5.314;2023-01-19T15:07:41;20.43;;;11.70;;
13560;SDS011;6852;51.686;5.314;2023-01-19T15:10:14;19.23;;;11.73;;
13560;SDS011;6852;51.686;5.314;2023-01-19T15:12:47;21.50;;;12.03;;
13560;SDS011;6852;51.686;5.314;2023-01-19T15:15:15;19.53;;;12.10;;
13560;SDS011;6852;51.686;5.314;2023-01-19T15:17:45;21.63;;;12.17;;
13560;SDS011;6852;51.686;5.314;2023-01-19T15:20:16;17.17;;;12.23;;
13560;SDS011;6852;51.686;5.314;2023-01-19T15:22:44;20.03;;;13.33;;
13560;SDS011;6852;51.686;5.314;2023-01-19T15:25:11;21.73;;;12.57;;
13560;SDS011;6852;51.686;5.314;2023-01-19T15:27:43;20.57;;;13.17;;
13560;SDS011;6852;51.686;5.314;2023-01-19T15:30:22;21.77;;;12.67;;
13560;SDS011;6852;51.686;5.314;2023-01-19T15:32:52;19.50;;;12.33;;
13560;SDS011;6852;51.686;5.314;2023-01-19T15:35:20;24.33;;;12.73;;
13560;SDS011;6852;51.686;5.314;2023-01-19T15:37:49;21.43;;;12.90;;
13560;SDS011;6852;51.686;5.314;2023-01-19T15:40:17;25.50;;;12.57;;
13560;SDS011;6852;51.686;5.314;2023-01-19T15:42:45;23.23;;;13.13;;
13560;SDS011;6852;51.686;5.314;2023-01-19T15:48:04;21.73;;;12.70;;
13560;SDS011;6852;51.686;5.314;2023-01-19T15:50:37;22.37;;;13.40;;
13560;SDS011;6852;51.686;5.314;2023-01-19T15:53:06;18.63;;;12.33;;
13560;SDS011;6852;51.686;5.314;2023-01-19T15:55:36;20.87;;;13.87;;
13560;SDS011;6852;51.686;5.314;2023-01-19T15:58:03;20.60;;;12.70;;
13560;SDS011;6852;51.686;5.314;2023-01-19T16:00:30;24.23;;;14.20;;
13560;SDS011;6852;51.686;5.314;2023-01-19T16:02:59;20.30;;;13.27;;
13560;SDS011;6852;51.686;5.314;2023-01-19T16:05:28;20.10;;;12.67;;
13560;SDS011;6852;51.686;5.314;2023-01-19T16:08:07;23.53;;;13.97;;
13560;SDS011;6852;51.686;5.314;2023-01-19T16:10:35;20.90;;;13.63;;
13560;SDS011;6852;51.686;5.314;2023-01-19T16:13:04;24.43;;;13.17;;
13560;SDS011;6852;51.686;5.314;2023-01-19T16:15:32;22.57;;;13.20;;
13560;SDS011;6852;51.686;5.314;2023-01-19T16:18:01;18.70;;;11.93;;
13560;SDS011;6852;51.686;5.314;2023-01-19T16:20:29;24.27;;;13.33;;
13560;SDS011;6852;51.686;5.314;2023-01-19T16:22:55;25.10;;;13.53;;
13560;SDS011;6852;51.686;5.314;2023-01-19T16:25:39;26.60;;;13.57;;
13560;SDS011;6852;51.686;5.314;2023-01-19T16:28:05;20.37;;;12.97;;
13560;SDS011;6852;51.686;5.314;2023-01-19T16:30:34;20.83;;;13.23;;
13560;SDS011;6852;51.686;5.314;2023-01-19T16:33:01;23.20;;;13.57;;
13560;SDS011;6852;51.686;5.314;2023-01-19T16:35:27;25.27;;;14.50;;
13560;SDS011;6852;51.686;5.314;2023-01-19T16:37:54;23.70;;;12.90;;
13560;SDS011;6852;51.686;5.314;2023-01-19T16:40:21;28.10;;;14.03;;
13560;SDS011;6852;51.686;5.314;2023-01-19T16:42:48;20.30;;;12.63;;
13560;SDS011;6852;51.686;5.314;2023-01-19T16:45:15;24.50;;;13.37;;
13560;SDS011;6852;51.686;5.314;2023-01-19T16:47:42;22.10;;;12.73;;
13560;SDS011;6852;51.686;5.314;2023-01-19T16:50:10;24.37;;;12.63;;
13560;SDS011;6852;51.686;5.314;2023-01-19T16:52:38;22.40;;;12.37;;
13560;SDS011;6852;51.686;5.314;2023-01-19T16:55:05;21.33;;;12.33;;